Time;durP1;ratioP1;P1;durP2;ratioP2;P2;SDS_P1;SDS_P2;PMS_P1;PMS_P2;Temp;Humidity;BMP_temperature;BMP_pressure;BME280_temperature;BME280_humidity;BME280_pressure;Samples;Min_cycle;Max_cycle;Signal;HPM_P1;HPM_P2
2022/11/25 00:01:13;;;;;;;3.05;0.90;;;26.40;68.00;;;;;;5073948;28;20374;-85
2022/11/25 00:03:41;;;;;;;3.63;1.00;;;26.70;67.40;;;;;;5073567;28;20465;-86
2022/11/25 00:06:24;;;;;;;2.22;0.80;;;27.00;65.90;;;;;;5073836;28;20366;-84
2022/11/25 00:09:12;;;;;;;3.05;0.95;;;26.70;65.00;;;;;;5073830;28;21009;-85
2022/11/25 00:11:41;;;;;;;3.60;0.90;;;26.50;65.10;;;;;;5073393;28;20385;-87
2022/11/25 00:14:11;;;;;;;2.25;0.90;;;26.40;65.80;;;;;;5055440;28;20449;-86
2022/11/25 00:16:38;;;;;;;3.35;0.90;;;26.60;62.60;;;;;;5073849;28;20557;-85
2022/11/25 00:19:06;;;;;;;3.00;0.70;;;26.20;63.90;;;;;;5070335;28;20409;-83
2022/11/25 00:21:34;;;;;;;1.42;0.73;;;25.90;65.60;;;;;;5062658;28;20374;-86
2022/11/25 00:24:04;;;;;;;2.97;0.70;;;26.10;65.10;;;;;;5073407;28;21032;-85
2022/11/25 00:26:33;;;;;;;2.33;0.80;;;26.40;63.40;;;;;;5073201;28;20412;-87
2022/11/25 00:29:02;;;;;;;5.57;0.98;;;26.30;64.30;;;;;;5073329;28;20394;-86
2022/11/25 00:31:33;;;;;;;3.72;0.93;;;26.30;65.70;;;;;;5073631;28;20460;-83
2022/11/25 00:34:00;;;;;;;2.10;0.70;;;26.80;63.50;;;;;;5073720;28;20378;-80
2022/11/25 00:36:30;;;;;;;2.13;0.70;;;26.50;61.70;;;;;;5073240;28;20382;-86
2022/11/25 00:39:04;;;;;;;5.15;1.02;;;26.50;61.40;;;;;;5055306;28;20402;-86
2022/11/25 00:47:13;;;;;;;2.03;0.70;;;26.50;61.20;;;;;;5073289;28;20381;-81
2022/11/25 00:49:41;;;;;;;2.28;0.80;;;26.40;60.30;;;;;;5073165;28;20392;-85
2022/11/25 00:52:12;;;;;;;2.65;0.80;;;26.70;61.40;;;;;;5072850;28;20406;-85
2022/11/25 00:54:39;;;;;;;1.58;0.80;;;26.90;60.00;;;;;;5073261;28;20374;-84
2022/11/25 00:57:06;;;;;;;2.45;0.70;;;27.30;59.40;;;;;;5072538;28;20394;-85
2022/11/25 00:59:33;;;;;;;1.50;0.70;;;27.60;59.40;;;;;;5062062;28;20399;-86
2022/11/25 01:02:00;;;;;;;3.60;0.80;;;27.80;56.50;;;;;;5068992;28;20373;-86
2022/11/25 01:04:27;;;;;;;5.20;0.90;;;27.80;56.80;;;;;;5072839;28;20383;-86
2022/11/25 01:06:55;;;;;;;4.35;0.88;;;28.30;56.20;;;;;;5072619;28;20385;-84
2022/11/25 01:09:23;;;;;;;4.43;1.00;;;28.10;57.60;;;;;;5072779;28;20390;-88
2022/11/25 01:11:51;;;;;;;3.70;1.10;;;28.40;57.00;;;;;;5072794;28;20389;-85
2022/11/25 01:14:19;;;;;;;4.65;0.90;;;28.70;57.30;;;;;;5071999;28;20850;-84
2022/11/25 01:16:46;;;;;;;2.80;0.73;;;29.50;54.40;;;;;;5072826;28;20374;-84
2022/11/25 01:19:14;;;;;;;3.80;0.70;;;29.80;54.30;;;;;;5072506;28;20405;-86
2022/11/25 01:21:41;;;;;;;3.38;0.70;;;29.90;54.00;;;;;;5072889;28;20383;-84
2022/11/25 01:24:09;;;;;;;1.90;0.73;;;29.80;51.60;;;;;;5072933;28;20421;-85
2022/11/25 01:26:36;;;;;;;1.58;0.60;;;29.20;53.00;;;;;;5072325;28;20378;-85
2022/11/25 01:29:06;;;;;;;4.28;0.82;;;28.90;53.10;;;;;;5072104;28;20421;-85
2022/11/25 01:31:36;;;;;;;3.35;0.85;;;28.90;52.50;;;;;;5072122;28;20382;-85
2022/11/25 01:34:14;;;;;;;4.30;0.90;;;29.00;53.70;;;;;;5072019;28;20378;-86
2022/11/25 01:36:42;;;;;;;2.33;0.70;;;29.50;52.70;;;;;;5071873;28;20369;-83
2022/11/25 01:39:20;;;;;;;5.28;0.80;;;30.30;49.90;;;;;;5071905;28;20402;-83
2022/11/25 01:41:47;;;;;;;2.57;0.60;;;30.30;50.20;;;;;;5068174;28;20398;-86
2022/11/25 01:44:18;;;;;;;5.65;0.70;;;30.70;48.80;;;;;;5051923;28;20468;-80
2022/11/25 01:47:00;;;;;;;2.60;0.80;;;30.60;48.90;;;;;;5068447;28;20387;-85
2022/11/25 01:50:02;;;;;;;1.02;0.60;;;30.50;48.40;;;;;;5060764;28;20380;-87
2022/11/25 01:52:42;;;;;;;1.70;0.52;;;30.60;47.00;;;;;;5049050;28;20469;-87
2022/11/25 01:55:20;;;;;;;3.05;0.70;;;31.20;47.70;;;;;;5071532;28;20500;-85
2022/11/25 01:57:53;;;;;;;1.70;0.65;;;31.60;45.40;;;;;;5071547;28;20406;-86
2022/11/25 02:00:21;;;;;;;2.17;0.63;;;31.80;44.20;;;;;;5071408;28;20407;-85
2022/11/25 02:02:51;;;;;;;2.23;0.63;;;31.80;45.30;;;;;;5071890;28;20391;-82
2022/11/25 02:05:21;;;;;;;2.60;0.70;;;31.90;45.80;;;;;;5071673;28;20734;-86
2022/11/25 02:07:50;;;;;;;1.13;0.57;;;31.50;45.40;;;;;;5071635;28;20407;-83
2022/11/25 02:10:27;;;;;;;3.35;0.55;;;31.30;45.40;;;;;;5070453;28;20386;-85
2022/11/25 02:12:54;;;;;;;2.45;0.77;;;31.10;46.50;;;;;;5071376;28;20379;-86
2022/11/25 02:15:21;;;;;;;2.95;0.57;;;31.10;45.90;;;;;;5071110;28;20385;-87
2022/11/25 02:17:49;;;;;;;4.40;0.70;;;30.80;46.20;;;;;;5071278;28;20386;-86
2022/11/25 02:20:22;;;;;;;5.43;0.70;;;31.30;46.40;;;;;;5071279;28;20391;-84
2022/11/25 02:23:24;;;;;;;2.67;0.70;;;31.90;45.30;;;;;;5071024;28;20380;-87
2022/11/25 02:25:52;;;;;;;2.70;0.70;;;31.90;43.90;;;;;;5071322;28;20375;-86
2022/11/25 02:28:23;;;;;;;0.88;0.45;;;32.00;44.00;;;;;;5070838;28;20874;-86
2022/11/25 02:30:50;;;;;;;1.40;0.60;;;31.70;43.70;;;;;;5071143;28;20415;-85
2022/11/25 02:33:18;;;;;;;2.20;0.50;;;31.40;44.00;;;;;;5056806;28;20799;-86
2022/11/25 02:36:04;;;;;;;1.05;0.60;;;31.90;44.60;;;;;;5070799;28;20382;-85
2022/11/25 02:39:06;;;;;;;1.70;0.60;;;31.70;44.00;;;;;;5070672;28;20950;-85
2022/11/25 02:41:40;;;;;;;2.70;0.50;;;31.70;42.80;;;;;;4989037;28;20447;-85
2022/11/25 02:44:07;;;;;;;2.42;0.60;;;31.50;43.30;;;;;;4989296;28;20547;-85
2022/11/25 02:46:34;;;;;;;3.57;0.70;;;31.50;44.80;;;;;;4989244;28;20742;-85
2022/11/25 02:49:02;;;;;;;8.65;0.70;;;32.50;44.50;;;;;;4989322;28;20388;-83
2022/11/25 02:51:31;;;;;;;4.70;0.88;;;33.70;41.80;;;;;;4989164;28;20389;-86
2022/11/25 02:53:59;;;;;;;3.57;0.60;;;34.10;41.00;;;;;;4989193;28;20389;-85
2022/11/25 02:56:29;;;;;;;4.57;0.80;;;34.50;40.20;;;;;;4988871;28;20415;-83
2022/11/25 02:58:56;;;;;;;2.20;0.60;;;34.90;41.10;;;;;;4988842;28;20412;-87
2022/11/25 03:01:24;;;;;;;8.50;1.27;;;35.70;39.50;;;;;;5005146;28;20451;-87
2022/11/25 03:03:51;;;;;;;6.53;0.95;;;34.80;38.80;;;;;;4975189;28;20512;-83
2022/11/25 03:06:18;;;;;;;3.22;0.63;;;33.60;40.20;;;;;;4989031;28;20393;-85
2022/11/25 03:08:45;;;;;;;5.32;0.88;;;33.30;41.80;;;;;;4988739;28;20392;-87
2022/11/25 03:11:12;;;;;;;1.10;0.60;;;33.70;42.00;;;;;;4989389;28;21231;-87
2022/11/25 03:13:40;;;;;;;4.65;0.63;;;33.70;40.90;;;;;;4988864;28;20393;-87
2022/11/25 03:16:07;;;;;;;1.80;0.60;;;33.40;40.90;;;;;;5050675;28;20387;-85
2022/11/25 03:18:35;;;;;;;1.95;0.60;;;32.80;41.90;;;;;;5070473;28;20758;-85
2022/11/25 03:21:02;;;;;;;2.53;0.70;;;33.10;42.00;;;;;;5055537;28;20371;-86
2022/11/25 03:23:29;;;;;;;6.30;0.88;;;32.60;41.40;;;;;;5070315;28;20362;-85
2022/11/25 03:25:56;;;;;;;2.23;0.70;;;31.90;43.30;;;;;;5070653;28;20741;-83
2022/11/25 03:28:23;;;;;;;4.28;0.80;;;32.50;41.70;;;;;;5052443;28;20801;-85
2022/11/25 03:30:50;;;;;;;2.30;0.60;;;32.90;42.80;;;;;;5070189;28;20738;-85
2022/11/25 03:33:17;;;;;;;2.93;0.80;;;33.50;41.50;;;;;;5069935;28;20400;-85
2022/11/25 03:35:44;;;;;;;5.60;2.03;;;33.90;40.50;;;;;;5070014;28;20377;-85
2022/11/25 03:38:11;;;;;;;4.72;2.00;;;33.70;44.50;;;;;;5055693;28;20454;-85
2022/11/25 03:40:38;;;;;;;4.07;1.73;;;32.60;46.90;;;;;;5069984;28;20374;-83
2022/11/25 03:43:05;;;;;;;4.85;2.60;;;31.60;47.50;;;;;;5069881;28;20378;-85
2022/11/25 03:45:32;;;;;;;4.65;2.50;;;31.30;50.90;;;;;;5069973;28;20427;-86
2022/11/25 03:47:59;;;;;;;9.63;2.85;;;30.80;51.90;;;;;;5069958;28;20604;-84
2022/11/25 03:50:26;;;;;;;7.40;3.22;;;30.60;54.50;;;;;;5069848;28;20378;-86
2022/11/25 03:52:53;;;;;;;6.13;2.88;;;31.60;55.50;;;;;;5069894;28;20373;-85
2022/11/25 03:55:20;;;;;;;6.35;3.00;;;32.00;54.20;;;;;;5069627;28;20402;-84
2022/11/25 03:57:47;;;;;;;7.00;3.20;;;32.10;53.80;;;;;;5069754;28;20463;-86
2022/11/25 04:00:14;;;;;;;6.95;2.90;;;32.40;54.00;;;;;;5069663;28;20378;-85
2022/11/25 04:02:41;;;;;;;6.60;3.00;;;32.10;54.60;;;;;;5069765;28;20362;-85
2022/11/25 04:05:08;;;;;;;7.43;3.10;;;31.80;54.90;;;;;;5055589;28;20395;-86
2022/11/25 04:07:36;;;;;;;8.77;3.40;;;32.40;55.60;;;;;;5042320;28;20456;-85
2022/11/25 04:10:03;;;;;;;9.45;3.13;;;32.60;55.90;;;;;;5070128;28;20739;-87
2022/11/25 04:12:45;;;;;;;7.65;3.15;;;33.10;55.30;;;;;;5070084;28;20857;-83
2022/11/25 04:15:14;;;;;;;8.63;2.95;;;33.50;53.20;;;;;;5069841;28;20378;-85
2022/11/25 04:17:42;;;;;;;7.38;3.08;;;33.40;53.80;;;;;;5069699;28;20392;-86
2022/11/25 04:20:09;;;;;;;7.78;3.08;;;32.80;54.60;;;;;;5057910;28;20856;-83
2022/11/25 04:22:37;;;;;;;7.32;3.20;;;31.90;56.00;;;;;;5067677;28;20966;-86
2022/11/25 04:25:05;;;;;;;7.10;3.10;;;31.70;56.70;;;;;;5042031;28;20830;-87
2022/11/25 04:27:32;;;;;;;7.53;3.30;;;32.10;56.40;;;;;;5069797;28;20382;-87
2022/11/25 04:29:59;;;;;;;6.35;3.17;;;32.10;57.40;;;;;;5069627;28;20872;-86
2022/11/25 04:32:26;;;;;;;6.28;3.08;;;32.60;56.20;;;;;;5069566;28;20392;-86
2022/11/25 04:34:53;;;;;;;6.85;2.90;;;32.80;56.10;;;;;;5072616;28;20374;-85
2022/11/25 04:37:20;;;;;;;6.65;3.00;;;33.10;55.10;;;;;;5073548;28;20456;-85
2022/11/25 04:39:47;;;;;;;8.23;3.28;;;33.10;55.10;;;;;;5073148;28;20429;-83
2022/11/25 04:42:33;;;;;;;6.47;2.97;;;33.00;54.50;;;;;;5073467;28;20374;-85
2022/11/25 04:45:01;;;;;;;5.35;2.90;;;32.60;55.20;;;;;;5073025;28;20378;-85
2022/11/25 04:47:29;;;;;;;6.88;3.13;;;32.50;55.20;;;;;;5073096;28;20384;-84
2022/11/25 04:49:56;;;;;;;6.45;3.25;;;32.60;55.20;;;;;;5067211;28;20467;-82
2022/11/25 04:52:23;;;;;;;5.50;3.13;;;32.60;54.70;;;;;;5048931;28;20424;-86
2022/11/25 04:54:50;;;;;;;6.17;3.00;;;32.60;54.10;;;;;;5077396;28;20374;-88
2022/11/25 04:57:17;;;;;;;5.97;3.20;;;32.70;54.60;;;;;;5073355;28;20386;-83
2022/11/25 04:59:44;;;;;;;5.50;2.90;;;33.20;53.80;;;;;;5064450;28;20406;-85
2022/11/25 05:02:19;;;;;;;4.70;2.90;;;32.90;53.80;;;;;;5072821;28;20381;-88
2022/11/25 05:04:48;;;;;;;5.30;2.70;;;32.50;54.20;;;;;;5055669;28;20481;-90
2022/11/25 05:07:17;;;;;;;7.45;3.00;;;32.50;54.50;;;;;;5065739;28;20477;-83
2022/11/25 05:09:45;;;;;;;6.32;3.05;;;32.40;54.30;;;;;;5058782;28;20745;-88
2022/11/25 05:12:16;;;;;;;6.63;3.07;;;32.70;54.50;;;;;;5070125;28;20378;-87
2022/11/25 05:14:43;;;;;;;7.37;3.10;;;32.90;54.00;;;;;;5067273;28;20374;-87
2022/11/25 05:17:16;;;;;;;4.20;2.70;;;33.20;53.60;;;;;;5070954;28;20383;-83
2022/11/25 05:19:44;;;;;;;5.47;3.03;;;33.30;53.70;;;;;;5073716;28;20480;-86
2022/11/25 05:22:13;;;;;;;8.38;3.10;;;33.50;51.70;;;;;;5072258;28;20869;-82
2022/11/25 05:24:40;;;;;;;5.15;2.85;;;33.60;52.40;;;;;;5072286;28;20444;-86
2022/11/25 05:27:08;;;;;;;5.10;2.90;;;33.50;52.10;;;;;;5064216;28;20374;-82
2022/11/25 05:29:35;;;;;;;6.17;3.10;;;33.50;52.30;;;;;;5054280;28;20443;-86
2022/11/25 05:32:02;;;;;;;6.38;2.88;;;33.50;51.70;;;;;;5069044;28;20474;-89
2022/11/25 05:34:29;;;;;;;6.28;3.30;;;33.10;52.70;;;;;;5044001;28;20437;-86
2022/11/25 05:36:57;;;;;;;6.28;3.20;;;33.10;53.20;;;;;;5049556;28;20446;-87
2022/11/25 05:39:24;;;;;;;4.78;2.85;;;33.10;52.70;;;;;;5049809;28;20419;-85
2022/11/25 05:41:51;;;;;;;5.85;3.00;;;33.20;53.40;;;;;;5049829;28;20467;-81
2022/11/25 05:44:18;;;;;;;6.20;2.85;;;33.30;52.40;;;;;;5049422;28;20384;-84
2022/11/25 05:46:45;;;;;;;4.78;2.80;;;33.30;52.70;;;;;;5036108;28;20389;-82
2022/11/25 05:49:13;;;;;;;6.75;2.70;;;32.90;53.20;;;;;;5049726;28;20388;-83
2022/11/25 05:51:40;;;;;;;7.67;2.80;;;33.20;52.70;;;;;;5030099;28;20463;-87
2022/11/25 05:54:07;;;;;;;5.75;2.78;;;33.20;52.50;;;;;;5029759;28;20394;-86
2022/11/25 05:56:34;;;;;;;7.97;2.85;;;33.00;52.90;;;;;;5030697;28;20492;-85
2022/11/25 05:59:02;;;;;;;5.32;2.70;;;33.10;52.70;;;;;;5044837;28;20478;-86
2022/11/25 06:01:29;;;;;;;6.20;2.50;;;33.00;52.90;;;;;;5047234;28;20470;-86
2022/11/25 06:04:03;;;;;;;5.60;2.67;;;32.50;53.30;;;;;;5036588;28;20491;-86
2022/11/25 06:06:31;;;;;;;4.03;2.47;;;32.30;53.90;;;;;;5044033;28;20474;-85
2022/11/25 06:08:58;;;;;;;5.30;2.50;;;32.40;53.80;;;;;;5036289;28;20475;-86
2022/11/25 06:11:25;;;;;;;6.82;2.58;;;32.40;53.70;;;;;;5055764;28;20382;-86
2022/11/25 06:13:52;;;;;;;7.07;2.70;;;32.50;53.90;;;;;;5053135;28;20801;-84
2022/11/25 06:16:21;;;;;;;5.00;2.80;;;32.20;54.30;;;;;;5069459;28;20382;-83
2022/11/25 06:18:49;;;;;;;6.30;2.67;;;32.30;54.50;;;;;;5059400;28;20430;-84
2022/11/25 06:21:17;;;;;;;4.50;2.83;;;32.20;54.40;;;;;;5071159;28;20549;-87
2022/11/25 06:23:44;;;;;;;4.75;2.80;;;31.90;55.00;;;;;;5061654;28;20464;-86
2022/11/25 06:26:20;;;;;;;7.53;2.70;;;31.70;55.40;;;;;;5067020;28;20391;-86
2022/11/25 06:28:49;;;;;;;7.22;2.80;;;31.60;56.00;;;;;;5067178;28;20410;-85
2022/11/25 06:31:19;;;;;;;5.82;2.85;;;31.70;56.00;;;;;;5066060;28;20865;-84
2022/11/25 06:33:48;;;;;;;4.30;2.50;;;31.80;55.70;;;;;;5071694;28;20964;-83
2022/11/25 06:36:18;;;;;;;4.05;2.50;;;32.00;55.10;;;;;;5070739;28;20374;-84
2022/11/25 06:38:47;;;;;;;6.45;2.92;;;31.90;54.50;;;;;;5049685;28;20421;-83
2022/11/25 06:41:15;;;;;;;5.95;2.58;;;31.80;55.50;;;;;;5063444;28;20392;-83
2022/11/25 06:43:42;;;;;;;5.00;2.55;;;31.70;55.50;;;;;;5056180;28;20401;-85
2022/11/25 06:46:15;;;;;;;4.87;2.63;;;31.60;54.60;;;;;;5070761;28;20853;-88
2022/11/25 06:48:42;;;;;;;4.55;2.88;;;31.40;55.10;;;;;;5067602;28;20449;-83
2022/11/25 06:51:11;;;;;;;4.50;2.50;;;31.20;55.50;;;;;;5061593;28;20949;-85
2022/11/25 06:53:39;;;;;;;3.97;2.63;;;31.20;55.70;;;;;;5067828;28;20397;-84
2022/11/25 06:56:12;;;;;;;7.05;2.60;;;31.20;56.00;;;;;;5051033;28;20575;-87
2022/11/25 06:58:40;;;;;;;4.72;2.65;;;31.00;56.00;;;;;;5060965;28;20648;-84
2022/11/25 07:01:13;;;;;;;4.75;2.80;;;30.70;56.60;;;;;;5057210;28;20411;-91
2022/11/25 07:03:40;;;;;;;5.22;2.70;;;30.80;56.40;;;;;;5068701;28;20469;-86
2022/11/25 07:06:08;;;;;;;4.70;2.85;;;30.70;56.30;;;;;;5059667;28;20394;-92
2022/11/25 07:08:36;;;;;;;5.93;2.63;;;30.50;57.40;;;;;;5061750;28;20383;-83
2022/11/25 07:11:33;;;;;;;5.10;2.63;;;30.80;56.70;;;;;;5063920;28;20382;-86
2022/11/25 07:14:03;;;;;;;5.15;2.63;;;30.40;56.30;;;;;;5058184;28;20398;-82
2022/11/25 07:16:31;;;;;;;6.22;2.60;;;30.30;57.00;;;;;;5065263;28;20386;-88
2022/11/25 07:19:02;;;;;;;5.55;2.70;;;30.20;56.90;;;;;;5055426;28;20513;-84
2022/11/25 07:21:31;;;;;;;4.53;2.80;;;29.90;57.00;;;;;;5058857;28;20534;-85
2022/11/25 07:24:03;;;;;;;5.95;4.55;;;29.40;58.10;;;;;;5058260;28;20382;-80
2022/11/25 07:26:34;;;;;;;10.27;7.28;;;29.20;58.80;;;;;;5062090;28;20414;-82
2022/11/25 07:29:03;;;;;;;22.57;19.60;;;29.40;58.70;;;;;;5059958;28;20413;-84
2022/11/25 07:31:35;;;;;;;35.03;30.13;;;29.40;58.10;;;;;;5068102;28;20391;-84
2022/11/25 07:34:09;;;;;;;11.85;7.68;;;29.30;58.70;;;;;;5057227;28;20406;-84
2022/11/25 07:36:37;;;;;;;6.18;3.10;;;29.00;59.40;;;;;;5065739;28;20409;-85
2022/11/25 07:39:07;;;;;;;5.80;2.83;;;28.90;59.60;;;;;;5066992;28;20410;-86
2022/11/25 07:41:34;;;;;;;7.78;2.80;;;29.10;58.90;;;;;;5060983;28;20468;-85
2022/11/25 07:44:04;;;;;;;6.60;2.60;;;29.30;59.00;;;;;;5060776;28;20743;-85
2022/11/25 07:46:33;;;;;;;4.38;2.30;;;29.50;58.50;;;;;;5061854;28;20411;-85
2022/11/25 07:49:03;;;;;;;6.28;2.80;;;29.30;58.50;;;;;;5071000;28;20378;-87
2022/11/25 07:51:34;;;;;;;4.68;2.65;;;29.00;59.00;;;;;;5056784;28;20470;-86
2022/11/25 07:54:02;;;;;;;3.90;2.53;;;28.60;59.80;;;;;;5060404;28;20402;-83
2022/11/25 07:56:30;;;;;;;3.25;2.55;;;28.10;61.20;;;;;;5058523;28;20802;-85
2022/11/25 07:58:58;;;;;;;5.68;3.00;;;27.70;62.30;;;;;;5054544;28;20508;-84
2022/11/25 08:01:25;;;;;;;5.40;2.80;;;27.30;63.40;;;;;;5059048;28;20410;-82
2022/11/25 08:03:53;;;;;;;5.82;3.10;;;26.90;64.40;;;;;;5056971;28;20393;-88
2022/11/25 08:06:25;;;;;;;6.97;2.77;;;26.50;65.50;;;;;;5070488;28;20767;-84
2022/11/25 08:08:54;;;;;;;5.57;2.90;;;26.00;66.70;;;;;;5058424;28;20432;-81
2022/11/25 08:11:32;;;;;;;9.87;3.20;;;25.80;67.80;;;;;;5071305;28;20419;-80
2022/11/25 08:14:00;;;;;;;5.82;2.90;;;25.40;68.40;;;;;;5068407;28;20840;-83
2022/11/25 08:16:31;;;;;;;7.85;3.10;;;25.10;69.30;;;;;;5062816;28;20358;-81
2022/11/25 08:19:01;;;;;;;5.03;2.80;;;25.00;70.20;;;;;;5072746;28;20407;-82
2022/11/25 08:21:28;;;;;;;5.82;3.00;;;24.80;70.60;;;;;;5054744;28;20390;-80
2022/11/25 08:23:56;;;;;;;4.90;2.70;;;24.80;71.00;;;;;;5070734;28;20394;-83
2022/11/25 08:26:28;;;;;;;6.35;3.03;;;24.70;71.20;;;;;;5061567;28;20481;-83
2022/11/25 08:28:57;;;;;;;7.53;3.78;;;24.70;71.20;;;;;;5065070;28;20389;-83
2022/11/25 08:31:29;;;;;;;7.95;3.83;;;24.50;71.90;;;;;;5060733;28;20466;-83
2022/11/25 08:33:57;;;;;;;8.07;3.60;;;24.30;72.70;;;;;;5068243;28;20869;-83
2022/11/25 08:36:25;;;;;;;6.47;3.30;;;24.20;73.60;;;;;;5064021;28;20382;-85
2022/11/25 08:38:56;;;;;;;7.35;3.78;;;24.00;74.10;;;;;;5055146;28;20449;-82
2022/11/25 08:41:27;;;;;;;6.45;3.50;;;23.70;75.10;;;;;;5059640;28;20400;-82
2022/11/25 08:43:55;;;;;;;6.90;4.07;;;23.60;76.20;;;;;;5066566;28;20482;-83
2022/11/25 08:46:25;;;;;;;5.93;3.03;;;23.30;76.80;;;;;;5053375;28;20376;-84
2022/11/25 08:48:52;;;;;;;5.40;3.08;;;23.10;77.60;;;;;;5044213;28;20478;-85
2022/11/25 08:51:23;;;;;;;6.93;3.28;;;22.80;79.00;;;;;;5047174;28;20493;-81
2022/11/25 08:53:50;;;;;;;6.55;3.20;;;22.60;80.40;;;;;;5067404;28;20390;-82
2022/11/25 08:56:18;;;;;;;6.63;3.35;;;22.30;81.80;;;;;;5063805;28;20386;-83
2022/11/25 08:58:45;;;;;;;6.90;3.27;;;22.10;84.20;;;;;;5072272;28;20451;-85
2022/11/25 09:01:13;;;;;;;6.63;3.22;;;22.00;86.60;;;;;;5072818;28;20962;-84
2022/11/25 09:03:43;;;;;;;7.30;3.20;;;22.00;89.30;;;;;;5060726;28;20879;-82
2022/11/25 09:06:11;;;;;;;6.25;3.22;;;22.00;90.70;;;;;;5060618;28;20382;-85
2022/11/25 09:08:40;;;;;;;5.22;3.08;;;22.00;91.40;;;;;;5067633;28;20394;-85
2022/11/25 09:11:08;;;;;;;7.88;3.22;;;21.90;92.30;;;;;;5061008;28;20471;-84
2022/11/25 09:13:35;;;;;;;9.73;3.47;;;21.90;93.20;;;;;;5060570;28;20806;-84
2022/11/25 09:16:03;;;;;;;6.85;3.70;;;21.90;94.00;;;;;;5064462;28;20876;-83
2022/11/25 09:18:31;;;;;;;6.30;3.40;;;21.80;94.70;;;;;;5066197;28;20400;-85
2022/11/25 09:20:59;;;;;;;6.70;3.20;;;21.80;95.50;;;;;;5048293;28;20445;-83
2022/11/25 09:23:26;;;;;;;6.88;3.40;;;21.80;95.90;;;;;;5072849;28;20485;-85
2022/11/25 09:25:57;;;;;;;6.55;3.10;;;21.70;96.40;;;;;;5072874;28;20893;-84
2022/11/25 09:28:25;;;;;;;5.97;3.30;;;21.70;97.30;;;;;;5059070;28;20754;-85
2022/11/25 09:30:53;;;;;;;6.40;3.40;;;21.60;97.60;;;;;;5072195;28;20915;-84
2022/11/25 09:33:20;;;;;;;8.75;3.45;;;21.50;98.40;;;;;;5066660;28;20378;-86
2022/11/25 09:35:49;;;;;;;7.80;3.47;;;21.40;98.90;;;;;;5070104;28;20389;-84
2022/11/25 09:38:16;;;;;;;9.90;4.15;;;21.40;99.90;;;;;;5057402;28;20442;-85
2022/11/25 09:41:07;;;;;;;7.15;3.88;;;21.30;99.90;;;;;;5068192;28;20433;-84
2022/11/25 09:47:13;;;;;;;9.57;4.75;;;20.90;99.90;;;;;;5054939;28;20787;-85
2022/11/25 09:50:23;;;;;;;10.37;4.83;;;20.90;99.90;;;;;;5035989;28;20396;-84
2022/11/25 09:53:21;;;;;;;7.73;4.93;;;20.70;99.90;;;;;;5040617;28;20787;-85
2022/11/25 09:55:53;;;;;;;10.27;4.93;;;20.70;99.90;;;;;;5055238;28;20380;-85
2022/11/25 09:58:32;;;;;;;8.57;4.97;;;20.70;99.90;;;;;;5055741;28;20404;-84
2022/11/25 10:01:04;;;;;;;10.55;5.00;;;20.60;99.90;;;;;;5045727;28;20392;-82
2022/11/25 10:03:37;;;;;;;8.77;4.80;;;20.50;99.90;;;;;;5053858;28;20466;-85
2022/11/25 10:06:32;;;;;;;11.63;5.13;;;20.40;99.90;;;;;;5065884;28;20382;-85
2022/11/25 10:09:09;;;;;;;8.00;5.00;;;20.40;99.90;;;;;;5047926;28;20393;-86
2022/11/25 10:12:00;;;;;;;9.95;4.90;;;20.30;99.90;;;;;;5070898;28;20389;-84
2022/11/25 10:14:44;;;;;;;8.90;5.32;;;20.30;99.90;;;;;;5059982;28;20401;-84
2022/11/25 10:17:11;;;;;;;9.05;5.15;;;20.30;99.90;;;;;;5053439;28;20728;-83
2022/11/25 10:20:06;;;;;;;8.80;4.85;;;20.20;99.90;;;;;;5059551;28;20406;-83
2022/11/25 10:22:42;;;;;;;8.80;5.13;;;20.20;99.90;;;;;;5068793;28;20857;-83
2022/11/25 10:25:40;;;;;;;8.82;5.15;;;20.20;99.90;;;;;;5068347;28;20378;-82
2022/11/25 10:28:18;;;;;;;9.37;5.13;;;20.20;99.90;;;;;;4975680;28;20409;-84
2022/11/25 10:31:03;;;;;;;11.20;5.22;;;20.10;99.90;;;;;;4981631;28;20394;-83
2022/11/25 10:33:43;;;;;;;10.05;5.00;;;20.10;99.90;;;;;;4972144;28;20405;-82
2022/11/25 10:36:22;;;;;;;8.60;5.20;;;20.10;99.90;;;;;;4979711;28;20453;-84
2022/11/25 10:39:16;;;;;;;9.00;5.20;;;20.20;99.90;;;;;;4976806;28;20423;-84
2022/11/25 10:42:03;;;;;;;10.43;5.07;;;20.30;99.90;;;;;;4983145;28;21309;-84
2022/11/25 10:44:33;;;;;;;10.93;5.00;;;20.20;99.90;;;;;;4981754;28;20472;-84
2022/11/25 10:47:19;;;;;;;7.75;4.50;;;20.10;99.90;;;;;;4978472;28;20548;-85
2022/11/25 10:50:04;;;;;;;10.30;5.10;;;20.10;99.90;;;;;;4980425;28;20449;-83
2022/11/25 10:52:54;;;;;;;9.60;5.32;;;20.00;99.90;;;;;;4972131;28;20389;-83
2022/11/25 10:55:27;;;;;;;10.20;5.15;;;19.90;99.90;;;;;;4985592;28;20411;-81
2022/11/25 10:57:55;;;;;;;9.27;5.03;;;20.00;99.90;;;;;;4973802;28;20410;-83
2022/11/25 11:00:24;;;;;;;9.35;5.75;;;20.00;99.90;;;;;;4985725;28;20392;-83
2022/11/25 11:02:56;;;;;;;11.47;5.37;;;19.90;99.90;;;;;;4982860;28;21402;-85
2022/11/25 11:05:28;;;;;;;8.65;5.57;;;19.80;99.90;;;;;;5056781;28;20784;-84
2022/11/25 11:08:35;;;;;;;10.55;5.20;;;19.90;99.90;;;;;;5064405;28;20414;-84
2022/11/25 11:11:17;;;;;;;9.35;4.90;;;20.00;99.90;;;;;;4943633;28;20379;-84
2022/11/25 11:13:45;;;;;;;10.13;4.90;;;20.00;99.90;;;;;;4969389;28;20394;-84
2022/11/25 11:16:54;;;;;;;10.65;5.00;;;20.10;99.90;;;;;;4968193;28;20394;-83
2022/11/25 11:19:30;;;;;;;10.05;5.10;;;20.20;99.90;;;;;;4926019;29;20524;-84
2022/11/25 11:22:15;;;;;;;11.38;5.25;;;20.20;99.90;;;;;;4915926;29;20399;-84
2022/11/25 11:24:42;;;;;;;8.48;4.70;;;20.20;99.90;;;;;;4927259;29;21171;-85
2022/11/25 11:27:23;;;;;;;10.32;4.50;;;20.10;99.90;;;;;;4930605;29;20425;-82
2022/11/25 11:30:22;;;;;;;10.10;4.53;;;20.10;99.90;;;;;;4923004;29;20449;-84
2022/11/25 11:33:30;;;;;;;10.05;4.63;;;20.10;99.90;;;;;;4930845;29;20544;-82
2022/11/25 11:36:17;;;;;;;8.32;3.90;;;19.90;99.90;;;;;;4938902;29;20924;-82
2022/11/25 11:38:49;;;;;;;10.30;3.77;;;19.80;99.90;;;;;;4909687;29;20418;-82
2022/11/25 11:41:39;;;;;;;7.43;3.80;;;19.60;99.90;;;;;;4931007;29;20386;-83
2022/11/25 11:44:38;;;;;;;7.78;3.42;;;19.60;99.90;;;;;;4937105;29;20477;-84
2022/11/25 11:47:24;;;;;;;7.13;3.60;;;19.60;99.90;;;;;;4990489;28;20438;-81
2022/11/25 11:50:00;;;;;;;7.60;3.60;;;19.50;99.90;;;;;;4997751;28;20388;-83
2022/11/25 11:52:55;;;;;;;8.40;3.33;;;19.60;99.90;;;;;;5019679;28;20393;-83
2022/11/25 11:55:41;;;;;;;7.53;3.40;;;19.70;99.90;;;;;;5074049;28;20386;-82
2022/11/25 11:58:14;;;;;;;8.45;3.40;;;19.70;99.90;;;;;;5068325;28;20413;-82
2022/11/25 12:01:22;;;;;;;5.93;3.35;;;19.60;99.90;;;;;;5071343;28;20393;-84
2022/11/25 12:04:00;;;;;;;9.77;3.50;;;19.50;99.90;;;;;;5067329;28;20869;-83
2022/11/25 12:06:31;;;;;;;7.18;3.40;;;19.50;99.90;;;;;;5074428;28;20409;-83
2022/11/25 12:09:20;;;;;;;7.43;3.30;;;19.40;99.90;;;;;;5075372;28;20389;-82
2022/11/25 12:11:54;;;;;;;8.70;3.28;;;19.40;99.90;;;;;;5071769;28;20874;-83
2022/11/25 12:14:34;;;;;;;8.63;3.20;;;19.50;99.90;;;;;;5067353;28;20388;-83
2022/11/25 12:17:06;;;;;;;9.27;3.50;;;19.50;99.90;;;;;;5065055;28;20475;-82
2022/11/25 12:19:43;;;;;;;7.45;3.38;;;19.50;99.90;;;;;;5069531;28;20495;-83
2022/11/25 12:22:42;;;;;;;8.93;3.17;;;19.40;99.90;;;;;;5074738;28;20922;-83
2022/11/25 12:25:28;;;;;;;11.48;3.75;;;19.40;99.90;;;;;;4989217;28;20394;-83
2022/11/25 12:28:01;;;;;;;9.55;3.55;;;19.40;99.90;;;;;;4998871;28;20455;-83
2022/11/25 12:31:03;;;;;;;17.80;4.00;;;19.50;99.90;;;;;;4999695;28;20428;-83
2022/11/25 12:33:53;;;;;;;12.77;3.70;;;19.40;99.90;;;;;;4956253;28;20399;-85
2022/11/25 12:36:29;;;;;;;13.17;3.60;;;19.40;99.90;;;;;;4964015;28;20441;-84
2022/11/25 12:39:20;;;;;;;19.88;4.03;;;19.30;99.90;;;;;;4955741;28;20416;-85
2022/11/25 12:42:12;;;;;;;12.75;3.33;;;19.20;99.90;;;;;;4955400;28;20753;-81
2022/11/25 12:44:48;;;;;;;11.35;3.30;;;19.10;99.90;;;;;;4939668;28;20450;-84
2022/11/25 12:47:15;;;;;;;16.17;4.07;;;19.10;99.90;;;;;;4943327;28;20803;-81
2022/11/25 12:49:48;;;;;;;12.60;3.60;;;19.00;99.90;;;;;;4955154;28;20399;-85
2022/11/25 12:52:23;;;;;;;15.93;3.72;;;19.00;99.90;;;;;;4957820;28;20477;-81
2022/11/25 12:55:12;;;;;;;8.18;2.90;;;18.90;99.90;;;;;;4952103;28;20400;-84
2022/11/25 12:57:54;;;;;;;8.55;2.97;;;18.80;99.90;;;;;;4952595;29;20413;-80
2022/11/25 13:00:26;;;;;;;6.57;2.95;;;18.70;99.90;;;;;;4953809;28;20396;-85
2022/11/25 13:02:53;;;;;;;6.10;2.90;;;18.60;99.90;;;;;;5022965;28;20866;-80
2022/11/25 13:05:55;;;;;;;8.60;3.08;;;18.50;99.90;;;;;;5018910;28;20492;-82
2022/11/25 13:08:38;;;;;;;8.73;3.10;;;18.40;99.90;;;;;;5028027;28;20393;-85
2022/11/25 13:11:29;;;;;;;11.57;3.28;;;18.40;99.90;;;;;;5070934;28;20412;-84
2022/11/25 13:14:32;;;;;;;16.67;3.87;;;18.30;99.90;;;;;;5054421;28;20379;-81
2022/11/25 13:16:59;;;;;;;6.30;2.70;;;18.30;99.90;;;;;;5066048;28;20390;-82
2022/11/25 13:19:26;;;;;;;8.38;2.92;;;18.20;99.90;;;;;;5059819;28;20410;-80
2022/11/25 13:22:05;;;;;;;7.78;3.20;;;18.20;99.90;;;;;;5070760;28;20865;-82
2022/11/25 13:24:38;;;;;;;8.15;3.03;;;18.20;99.90;;;;;;5069845;28;20389;-82